Time;durP1;ratioP1;P1;durP2;ratioP2;P2;SDS_P1;SDS_P2;PMS_P1;PMS_P2;Temp;Humidity;BMP_temperature;BMP_pressure;BME280_temperature;BME280_humidity;BME280_pressure;Samples;Min_cycle;Max_cycle;Signal;HPM_P1;HPM_P2
2022/04/11 00:02:03;;;;;;;8.98;5.80;;;7.90;61.00;;;;;;5124506;27;20042;-58
2022/04/11 00:04:29;;;;;;;8.52;5.30;;;7.80;61.30;;;;;;5130573;27;20042;-58
2022/04/11 00:06:55;;;;;;;7.35;5.18;;;7.80;61.40;;;;;;5129289;28;20024;-60
2022/04/11 00:09:20;;;;;;;9.88;5.88;;;7.80;61.30;;;;;;5127269;27;20375;-59
2022/04/11 00:11:46;;;;;;;8.63;6.05;;;7.80;61.40;;;;;;5125382;28;20358;-58
2022/04/11 00:14:13;;;;;;;9.98;6.05;;;7.80;61.90;;;;;;5128371;28;20034;-57
2022/04/11 00:16:39;;;;;;;8.98;5.95;;;7.80;61.80;;;;;;5115548;28;20026;-58
2022/04/11 00:19:08;;;;;;;8.30;5.90;;;7.80;61.70;;;;;;5131114;27;20035;-56
2022/04/11 00:21:34;;;;;;;11.30;6.20;;;7.80;61.90;;;;;;5130026;27;20027;-56
2022/04/11 00:24:00;;;;;;;8.82;6.18;;;7.80;62.50;;;;;;5129719;28;20378;-58
2022/04/11 00:26:27;;;;;;;11.75;5.82;;;7.90;61.70;;;;;;5120515;27;20031;-57
2022/04/11 00:28:53;;;;;;;9.02;5.68;;;8.00;61.60;;;;;;5131464;27;20027;-60
2022/04/11 00:31:19;;;;;;;8.20;5.63;;;7.90;62.10;;;;;;5126170;27;20043;-58
2022/04/11 00:33:45;;;;;;;10.93;6.30;;;7.90;61.40;;;;;;5133402;27;20092;-57
2022/04/11 00:36:11;;;;;;;7.68;5.80;;;7.90;61.40;;;;;;5121131;27;20015;-57
2022/04/11 00:38:37;;;;;;;9.88;6.30;;;7.90;61.80;;;;;;5134984;27;20402;-58
2022/04/11 00:41:03;;;;;;;11.80;6.45;;;7.90;61.70;;;;;;5141050;27;20039;-56
2022/04/11 00:43:47;;;;;;;9.60;6.20;;;7.80;62.00;;;;;;5150730;27;20075;-55
2022/04/11 00:46:13;;;;;;;9.25;6.25;;;7.80;62.10;;;;;;5154775;27;20298;-58
2022/04/11 00:48:40;;;;;;;11.25;5.78;;;7.80;61.90;;;;;;5154890;27;20018;-57
2022/04/11 00:51:16;;;;;;;7.85;6.03;;;7.80;61.80;;;;;;5154307;27;20038;-57
2022/04/11 00:53:45;;;;;;;11.20;6.32;;;7.90;61.70;;;;;;5141659;27;20026;-56
2022/04/11 00:56:15;;;;;;;7.55;6.15;;;7.90;61.70;;;;;;5136728;27;20459;-58
2022/04/11 00:58:41;;;;;;;8.05;6.00;;;7.80;61.60;;;;;;5155272;27;20054;-58
2022/04/11 01:01:08;;;;;;;10.88;6.82;;;7.80;61.40;;;;;;5155002;27;20039;-58
2022/04/11 01:03:34;;;;;;;9.52;6.78;;;7.80;61.40;;;;;;5155118;27;20076;-59
2022/04/11 01:06:01;;;;;;;10.23;6.55;;;7.80;61.60;;;;;;5136143;27;20475;-58
2022/04/11 01:08:28;;;;;;;8.98;5.93;;;7.80;61.50;;;;;;5137976;27;20046;-57
2022/04/11 01:10:55;;;;;;;11.07;6.10;;;7.80;61.50;;;;;;5146633;27;20367;-62
2022/04/11 01:13:21;;;;;;;10.50;6.55;;;7.80;61.40;;;;;;5139921;27;20061;-59
2022/04/11 01:15:58;;;;;;;9.30;6.93;;;7.70;61.40;;;;;;5140017;27;20023;-61
2022/04/11 01:18:24;;;;;;;8.93;6.05;;;7.70;61.70;;;;;;5148030;27;20023;-57
2022/04/11 01:20:50;;;;;;;9.05;6.05;;;7.70;61.50;;;;;;5155008;27;20026;-58
2022/04/11 01:23:16;;;;;;;8.05;6.20;;;7.70;61.60;;;;;;5133709;27;20148;-59
2022/04/11 01:25:53;;;;;;;8.55;6.40;;;7.60;61.80;;;;;;5143893;27;20046;-58
2022/04/11 01:28:21;;;;;;;9.30;6.38;;;7.60;62.00;;;;;;5133578;27;20026;-58
2022/04/11 01:30:49;;;;;;;11.07;6.32;;;7.60;61.90;;;;;;5155302;27;20034;-58
2022/04/11 01:33:26;;;;;;;9.35;6.63;;;7.70;61.90;;;;;;5135270;27;20035;-59
2022/04/11 01:35:52;;;;;;;10.10;6.85;;;7.60;62.00;;;;;;5132199;27;20141;-62
2022/04/11 01:38:19;;;;;;;9.35;6.13;;;7.60;62.20;;;;;;5122129;27;20054;-60
2022/04/11 01:40:52;;;;;;;8.65;6.15;;;7.60;62.30;;;;;;5136238;27;20122;-58
2022/04/11 01:43:18;;;;;;;10.43;6.55;;;7.50;62.30;;;;;;5141999;27;20141;-58
2022/04/11 01:45:44;;;;;;;8.98;6.40;;;7.60;62.30;;;;;;5147575;27;20098;-56
2022/04/11 01:48:10;;;;;;;7.45;6.32;;;7.50;62.40;;;;;;5153951;27;20038;-57
2022/04/11 01:50:36;;;;;;;10.52;6.05;;;7.60;62.40;;;;;;5127523;27;20039;-61
2022/04/11 01:53:16;;;;;;;10.50;6.60;;;7.50;62.30;;;;;;5126492;27;20367;-60
2022/04/11 01:55:42;;;;;;;9.73;6.78;;;7.50;62.40;;;;;;5131966;27;20127;-58
2022/04/11 01:58:09;;;;;;;10.68;6.47;;;7.50;62.50;;;;;;5137869;27;20019;-57
2022/04/11 02:00:36;;;;;;;8.98;5.93;;;7.50;62.50;;;;;;5118813;27;20035;-58
2022/04/11 02:03:06;;;;;;;7.85;6.05;;;7.50;62.50;;;;;;5124051;27;20027;-58
2022/04/11 02:05:33;;;;;;;8.57;6.38;;;7.50;62.60;;;;;;5152788;27;20031;-58
2022/04/11 02:07:59;;;;;;;10.90;7.25;;;7.50;62.80;;;;;;5133054;27;20026;-58
2022/04/11 02:10:25;;;;;;;10.38;7.15;;;7.50;62.90;;;;;;5151373;27;20035;-57
2022/04/11 02:12:52;;;;;;;9.50;6.85;;;7.50;62.90;;;;;;5130415;27;20031;-59
2022/04/11 02:15:18;;;;;;;12.98;7.03;;;7.50;62.90;;;;;;5150145;27;20015;-56
2022/04/11 02:17:46;;;;;;;9.98;7.75;;;7.50;62.90;;;;;;5153566;27;20264;-55
2022/04/11 02:20:13;;;;;;;9.50;6.63;;;7.60;62.90;;;;;;5135180;27;20038;-56
2022/04/11 02:22:47;;;;;;;8.93;6.63;;;7.50;62.90;;;;;;5135395;27;20050;-58
2022/04/11 02:25:14;;;;;;;7.82;5.93;;;7.60;63.00;;;;;;5134648;27;20018;-57
2022/04/11 02:27:41;;;;;;;11.25;7.47;;;7.60;63.00;;;;;;5135292;27;20052;-59
2022/04/11 02:30:07;;;;;;;8.73;6.88;;;7.70;63.00;;;;;;5120204;27;20034;-57
2022/04/11 02:32:33;;;;;;;10.75;7.10;;;7.70;62.60;;;;;;5147789;27;20023;-59
2022/04/11 02:34:59;;;;;;;10.00;7.15;;;7.80;62.70;;;;;;5120221;27;20149;-58
2022/04/11 02:37:25;;;;;;;9.75;7.30;;;7.70;62.50;;;;;;5109375;27;20122;-56
2022/04/11 02:39:51;;;;;;;10.48;6.78;;;7.70;62.50;;;;;;5134396;27;20254;-57
2022/04/11 02:42:21;;;;;;;8.23;6.70;;;7.70;62.80;;;;;;5153104;27;20427;-60
2022/04/11 02:44:47;;;;;;;9.38;7.50;;;7.60;62.80;;;;;;5131010;27;20050;-58
2022/04/11 02:47:13;;;;;;;10.32;7.00;;;7.60;63.10;;;;;;5128596;27;20055;-56
2022/04/11 02:49:38;;;;;;;10.25;6.70;;;7.50;63.30;;;;;;5134706;27;20015;-60
2022/04/11 02:52:04;;;;;;;10.95;7.50;;;7.50;63.60;;;;;;5132519;27;20130;-59
2022/04/11 02:54:48;;;;;;;10.70;7.28;;;7.40;64.00;;;;;;5126607;27;20085;-59
2022/04/11 02:57:14;;;;;;;10.07;7.43;;;7.40;64.00;;;;;;5124993;27;20386;-58
2022/04/11 02:59:40;;;;;;;11.38;7.47;;;7.40;64.10;;;;;;5121339;27;20022;-57
2022/04/11 03:02:06;;;;;;;11.07;7.20;;;7.40;64.10;;;;;;5152099;27;20031;-58
2022/04/11 03:04:31;;;;;;;10.90;6.85;;;7.30;64.00;;;;;;5132080;27;20072;-58
2022/04/11 03:06:57;;;;;;;9.90;6.75;;;7.40;64.00;;;;;;5122221;27;20072;-59
2022/04/11 03:09:23;;;;;;;10.45;7.30;;;7.30;64.00;;;;;;5127900;27;20373;-57
2022/04/11 03:11:49;;;;;;;11.50;7.50;;;7.30;63.80;;;;;;5127035;27;20462;-56
2022/04/11 03:14:15;;;;;;;9.98;6.75;;;7.40;63.70;;;;;;5146788;27;20027;-58
2022/04/11 03:16:41;;;;;;;8.98;6.88;;;7.40;63.50;;;;;;5145888;27;20022;-56
2022/04/11 03:19:08;;;;;;;10.80;6.93;;;7.40;63.60;;;;;;5136541;27;20015;-58
2022/04/11 03:21:34;;;;;;;12.07;7.40;;;7.40;63.60;;;;;;5152983;27;20046;-57
2022/04/11 03:24:01;;;;;;;8.65;7.00;;;7.50;63.50;;;;;;5146031;27;20027;-57
2022/04/11 03:26:26;;;;;;;10.93;7.60;;;7.50;63.30;;;;;;5120432;27;20448;-56
2022/04/11 03:28:52;;;;;;;10.25;7.18;;;7.50;63.30;;;;;;5146829;27;20023;-59
2022/04/11 03:31:18;;;;;;;9.40;7.20;;;7.40;63.30;;;;;;5137154;27;20531;-58
2022/04/11 03:33:44;;;;;;;12.40;7.88;;;7.40;63.60;;;;;;5129438;27;20026;-57
2022/04/11 03:36:10;;;;;;;12.73;7.78;;;7.40;63.60;;;;;;5150242;27;20023;-55
2022/04/11 03:38:36;;;;;;;9.45;6.80;;;7.40;63.70;;;;;;5150300;27;20152;-58
2022/04/11 03:41:02;;;;;;;11.05;7.45;;;7.40;63.60;;;;;;5127729;28;20502;-58
2022/04/11 03:43:28;;;;;;;10.70;6.93;;;7.40;63.30;;;;;;5124869;28;20020;-59
2022/04/11 03:45:54;;;;;;;9.50;7.45;;;7.40;63.30;;;;;;5128349;28;20081;-58
2022/04/11 03:48:19;;;;;;;11.05;7.85;;;7.40;63.20;;;;;;5110052;28;20031;-56
2022/04/11 03:50:45;;;;;;;12.15;7.80;;;7.40;63.20;;;;;;5125989;28;20027;-58
2022/04/11 03:53:12;;;;;;;10.48;7.60;;;7.40;63.30;;;;;;5120217;28;20357;-57
2022/04/11 03:55:37;;;;;;;9.18;6.95;;;7.50;63.40;;;;;;5117209;28;20387;-55
2022/04/11 03:58:03;;;;;;;13.85;7.93;;;7.50;63.40;;;;;;5120514;27;20016;-56
2022/04/11 04:00:29;;;;;;;10.48;7.40;;;7.50;63.20;;;;;;5127524;28;20108;-59
2022/04/11 04:03:11;;;;;;;11.18;7.78;;;7.50;63.10;;;;;;5134366;27;20046;-60
2022/04/11 04:05:44;;;;;;;12.65;7.70;;;7.60;63.10;;;;;;5127099;27;20041;-56
2022/04/11 04:08:28;;;;;;;10.20;7.50;;;7.60;63.00;;;;;;5124128;27;20020;-58
2022/04/11 04:10:54;;;;;;;12.73;8.13;;;7.70;63.00;;;;;;5124779;27;20035;-57
2022/04/11 04:13:20;;;;;;;11.70;7.85;;;7.70;62.80;;;;;;5123211;27;20028;-57
2022/04/11 04:15:46;;;;;;;12.48;7.70;;;7.80;62.60;;;;;;5135609;27;20023;-56
2022/04/11 04:18:12;;;;;;;11.23;7.93;;;7.80;62.60;;;;;;5125697;27;20023;-60
2022/04/11 04:20:40;;;;;;;12.45;7.32;;;7.80;62.50;;;;;;5130243;27;20030;-61
2022/04/11 04:23:06;;;;;;;15.30;8.32;;;7.80;62.40;;;;;;5130037;27;20016;-60
2022/04/11 04:25:33;;;;;;;10.35;8.43;;;7.90;62.30;;;;;;5130470;27;20122;-60
2022/04/11 04:28:00;;;;;;;11.73;8.15;;;7.90;62.20;;;;;;5135423;27;20456;-61
2022/04/11 04:30:25;;;;;;;10.23;8.05;;;7.90;62.30;;;;;;5115013;27;20031;-60
2022/04/11 04:32:52;;;;;;;11.43;8.23;;;7.80;62.40;;;;;;5123866;27;20080;-59
2022/04/11 04:35:18;;;;;;;10.02;7.93;;;7.90;62.30;;;;;;5120942;27;20016;-59
2022/04/11 04:37:44;;;;;;;13.00;8.98;;;8.00;62.20;;;;;;5135382;27;20019;-59
2022/04/11 04:40:10;;;;;;;10.55;7.82;;;8.00;62.20;;;;;;5132944;27;20050;-57
2022/04/11 04:42:36;;;;;;;12.82;8.20;;;8.10;62.00;;;;;;5133163;27;20031;-57
2022/04/11 04:45:03;;;;;;;13.00;8.68;;;8.10;61.50;;;;;;5130987;27;20028;-58
2022/04/11 04:47:28;;;;;;;13.95;8.73;;;8.10;61.30;;;;;;5133900;27;20023;-60
2022/04/11 04:49:54;;;;;;;13.10;8.45;;;8.20;61.20;;;;;;5133462;27;20050;-59
2022/04/11 04:52:20;;;;;;;14.63;8.73;;;8.30;61.00;;;;;;5134488;27;20516;-60
2022/04/11 04:55:04;;;;;;;12.73;8.00;;;8.30;60.70;;;;;;5134700;27;20492;-58
2022/04/11 04:57:31;;;;;;;13.38;8.32;;;8.40;60.70;;;;;;5134642;27;20519;-58
2022/04/11 04:59:56;;;;;;;12.20;7.65;;;8.40;60.40;;;;;;5121451;27;20023;-60
2022/04/11 05:02:22;;;;;;;13.52;7.55;;;8.40;59.90;;;;;;5130359;27;20027;-59
2022/04/11 05:04:48;;;;;;;13.23;7.85;;;8.30;59.60;;;;;;5126582;27;20456;-60
2022/04/11 05:07:14;;;;;;;9.95;6.45;;;8.40;59.70;;;;;;5115925;27;20031;-58
2022/04/11 05:09:40;;;;;;;11.27;6.95;;;8.40;59.40;;;;;;5134898;27;20026;-60
2022/04/11 05:12:06;;;;;;;10.68;7.45;;;8.50;59.10;;;;;;5132322;27;20399;-60
2022/04/11 05:14:32;;;;;;;11.13;6.55;;;8.50;58.60;;;;;;5134020;27;20027;-57
2022/04/11 05:16:58;;;;;;;17.20;6.60;;;8.60;58.40;;;;;;5132691;27;20026;-62
2022/04/11 05:19:23;;;;;;;8.73;5.85;;;8.70;58.00;;;;;;5132481;27;20027;-57
2022/04/11 05:21:49;;;;;;;10.18;5.63;;;8.70;57.20;;;;;;5130310;27;20031;-58
2022/04/11 05:24:15;;;;;;;10.98;5.65;;;8.70;56.40;;;;;;5123404;27;20088;-58
2022/04/11 05:26:41;;;;;;;10.38;5.53;;;8.70;56.20;;;;;;5131467;27;20028;-58
2022/04/11 05:29:06;;;;;;;11.43;4.95;;;8.70;56.30;;;;;;5132587;27;20055;-58
2022/04/11 05:31:32;;;;;;;7.72;4.78;;;8.70;56.30;;;;;;5122310;27;20015;-59
2022/04/11 05:34:00;;;;;;;9.65;5.10;;;8.70;56.20;;;;;;5133294;27;20464;-62
2022/04/11 05:36:25;;;;;;;15.88;4.90;;;8.80;55.40;;;;;;5130019;27;20019;-59
2022/04/11 05:38:51;;;;;;;10.40;4.93;;;8.80;54.90;;;;;;5134275;27;20019;-59
2022/04/11 05:41:17;;;;;;;7.70;4.20;;;8.80;54.90;;;;;;5131715;27;20494;-59
2022/04/11 05:43:43;;;;;;;12.10;4.70;;;8.80;54.50;;;;;;5124614;27;20035;-59
2022/04/11 05:46:09;;;;;;;8.98;4.32;;;8.90;54.30;;;;;;5130726;27;20062;-58
2022/04/11 05:48:35;;;;;;;12.52;4.57;;;9.00;54.30;;;;;;5132819;27;20023;-57
2022/04/11 05:51:01;;;;;;;14.82;4.32;;;8.90;54.10;;;;;;5131717;27;20031;-61
2022/04/11 05:53:27;;;;;;;12.45;5.15;;;9.00;54.30;;;;;;5129437;27;20031;-60
2022/04/11 05:55:53;;;;;;;10.77;4.68;;;9.10;53.90;;;;;;5131131;27;20509;-58
2022/04/11 05:58:19;;;;;;;13.95;4.65;;;9.30;53.60;;;;;;5132915;27;20156;-59
2022/04/11 06:00:44;;;;;;;10.60;4.53;;;9.40;53.00;;;;;;5125433;27;20457;-58
2022/04/11 06:03:10;;;;;;;27.55;5.22;;;9.40;52.70;;;;;;5132188;27;20378;-58
2022/04/11 06:05:40;;;;;;;9.73;3.58;;;9.40;52.40;;;;;;5134108;27;20374;-58
2022/04/11 06:08:05;;;;;;;6.50;3.67;;;9.30;52.30;;;;;;5128704;27;20118;-57
2022/04/11 06:10:31;;;;;;;13.30;3.58;;;9.40;52.20;;;;;;5132488;27;20390;-58
2022/04/11 06:12:57;;;;;;;9.43;3.92;;;9.50;52.20;;;;;;5124998;27;20029;-57
2022/04/11 06:15:23;;;;;;;11.85;3.65;;;9.50;52.00;;;;;;5124420;27;20030;-59
2022/04/11 06:17:49;;;;;;;13.40;4.50;;;9.50;51.80;;;;;;5120844;27;20031;-57
2022/04/11 06:20:15;;;;;;;11.48;4.40;;;9.50;52.20;;;;;;5130668;27;20392;-58
2022/04/11 06:22:41;;;;;;;10.02;3.88;;;9.50;51.60;;;;;;5130936;27;20031;-58
2022/04/11 06:25:08;;;;;;;10.70;3.70;;;9.50;51.30;;;;;;5130132;27;20383;-57
2022/04/11 06:27:36;;;;;;;9.75;2.97;;;9.40;51.30;;;;;;5132881;27;20034;-59
2022/04/11 06:30:04;;;;;;;7.43;3.72;;;9.50;51.40;;;;;;5118409;27;20470;-63
2022/04/11 06:32:32;;;;;;;20.67;4.60;;;9.60;51.60;;;;;;5127562;27;20024;-59
2022/04/11 06:34:59;;;;;;;8.05;3.17;;;9.70;51.00;;;;;;5120504;27;20024;-58
2022/04/11 06:37:26;;;;;;;14.40;4.55;;;9.80;50.70;;;;;;5122014;27;20024;-58
2022/04/11 06:39:52;;;;;;;10.57;4.20;;;9.90;50.70;;;;;;5127114;27;20027;-61
2022/04/11 06:42:18;;;;;;;13.55;3.75;;;10.00;50.30;;;;;;5144763;27;20117;-60
2022/04/11 06:44:44;;;;;;;10.60;3.30;;;10.10;49.70;;;;;;5143572;27;20027;-60
2022/04/11 06:47:10;;;;;;;8.48;3.60;;;10.20;49.40;;;;;;5126571;27;20025;-59
2022/04/11 06:49:36;;;;;;;9.95;3.65;;;10.20;49.10;;;;;;5144875;27;20023;-59
2022/04/11 06:52:03;;;;;;;15.25;3.83;;;10.10;49.30;;;;;;5128219;27;20031;-59
2022/04/11 06:54:30;;;;;;;11.45;3.65;;;9.90;49.10;;;;;;5142098;27;20031;-61
2022/04/11 06:56:58;;;;;;;21.05;4.32;;;9.90;49.50;;;;;;5118834;27;20027;-60
2022/04/11 06:59:24;;;;;;;7.13;2.83;;;10.10;49.50;;;;;;5139509;27;20035;-60
2022/04/11 07:01:54;;;;;;;9.98;3.30;;;10.30;48.60;;;;;;5142922;27;20038;-61
2022/04/11 07:04:20;;;;;;;9.95;3.50;;;10.40;48.20;;;;;;5126565;27;20034;-60
2022/04/11 07:06:47;;;;;;;13.98;3.35;;;10.60;47.70;;;;;;5150107;27;20027;-58
2022/04/11 07:09:14;;;;;;;13.23;3.40;;;10.80;47.60;;;;;;5143326;27;20353;-55
2022/04/11 07:11:41;;;;;;;9.77;3.53;;;11.00;46.90;;;;;;5124030;27;20034;-58
2022/04/11 07:14:08;;;;;;;9.35;3.33;;;11.30;45.70;;;;;;5125675;27;20034;-60
2022/04/11 07:16:34;;;;;;;8.73;3.88;;;11.50;45.50;;;;;;5127076;27;20052;-56
2022/04/11 07:19:00;;;;;;;8.35;3.70;;;12.60;46.00;;;;;;5144421;27;20042;-62
2022/04/11 07:21:26;;;;;;;15.88;2.78;;;16.30;43.00;;;;;;5149160;27;20038;-61
2022/04/11 07:23:52;;;;;;;12.57;3.42;;;18.80;35.60;;;;;;5147884;27;20087;-64
2022/04/11 07:26:18;;;;;;;10.07;3.10;;;17.70;33.40;;;;;;5138546;27;20023;-55
2022/04/11 07:28:44;;;;;;;11.18;3.00;;;16.20;34.20;;;;;;5124810;27;20087;-58
2022/04/11 07:31:35;;;;;;;14.38;5.88;;;15.20;36.40;;;;;;5146611;27;20099;-62
2022/04/11 07:34:02;;;;;;;14.43;6.22;;;15.50;38.20;;;;;;5123130;27;20027;-57
2022/04/11 07:36:28;;;;;;;9.50;4.18;;;19.50;36.00;;;;;;5130549;27;20072;-62
2022/04/11 07:38:57;;;;;;;19.33;4.68;;;22.40;31.20;;;;;;5125919;27;20027;-57
2022/04/11 07:41:26;;;;;;;8.05;3.78;;;25.60;28.60;;;;;;5141130;27;20050;-58
2022/04/11 07:43:56;;;;;;;8.23;4.18;;;28.10;26.00;;;;;;5124141;27;20109;-62
2022/04/11 07:46:24;;;;;;;8.27;4.15;;;30.10;25.00;;;;;;5123624;27;20033;-56
2022/04/11 07:48:50;;;;;;;17.77;4.25;;;31.90;23.70;;;;;;5121918;27;20603;-59
2022/04/11 07:51:16;;;;;;;6.30;3.50;;;33.30;22.40;;;;;;5124148;27;20657;-56
2022/04/11 07:53:42;;;;;;;14.10;4.00;;;34.60;21.70;;;;;;5125466;27;20122;-56
2022/04/11 07:56:08;;;;;;;11.25;3.97;;;35.30;20.80;;;;;;5128449;27;20022;-56
2022/04/11 07:58:33;;;;;;;12.50;4.88;;;36.20;20.80;;;;;;5113913;27;20027;-54
2022/04/11 08:00:59;;;;;;;9.57;4.20;;;37.20;20.30;;;;;;5121539;27;20035;-58
2022/04/11 08:03:25;;;;;;;6.97;3.63;;;38.00;20.10;;;;;;5141747;27;20496;-57
2022/04/11 08:05:51;;;;;;;7.90;3.30;;;38.80;19.70;;;;;;5140493;27;20511;-56
2022/04/11 08:08:17;;;;;;;18.35;5.05;;;39.80;19.30;;;;;;5122009;27;20023;-57
2022/04/11 08:10:44;;;;;;;7.78;3.78;;;40.70;18.80;;;;;;5128293;27;20018;-59
2022/04/11 08:13:11;;;;;;;6.90;4.10;;;40.70;18.20;;;;;;5141722;27;20056;-59
2022/04/11 08:15:38;;;;;;;6.88;2.80;;;40.70;18.20;;;;;;5145293;27;20102;-62
2022/04/11 08:18:04;;;;;;;6.82;3.97;;;40.10;17.90;;;;;;5124057;27;20031;-61
2022/04/11 08:20:32;;;;;;;4.97;3.00;;;40.30;18.10;;;;;;5138108;27;20075;-59
2022/04/11 08:22:58;;;;;;;7.30;3.30;;;41.40;17.80;;;;;;5141590;27;20023;-59
2022/04/11 08:25:25;;;;;;;9.25;2.55;;;42.20;17.60;;;;;;5136511;27;20042;-60
2022/04/11 08:27:51;;;;;;;5.65;3.22;;;42.50;17.50;;;;;;5128474;27;20027;-60
2022/04/11 08:30:17;;;;;;;7.13;3.03;;;42.00;17.50;;;;;;5150277;27;20037;-59
2022/04/11 08:32:45;;;;;;;7.45;3.22;;;41.50;17.40;;;;;;5119865;27;20026;-59
2022/04/11 08:35:11;;;;;;;15.57;4.63;;;41.00;17.40;;;;;;5144641;27;20026;-59
2022/04/11 08:37:40;;;;;;;7.78;3.70;;;40.50;17.20;;;;;;5147281;27;20023;-60
2022/04/11 08:40:10;;;;;;;8.30;3.53;;;40.10;17.40;;;;;;5133970;27;20127;-59
2022/04/11 08:42:38;;;;;;;11.48;3.00;;;39.90;17.10;;;;;;5129927;27;20104;-59
2022/04/11 08:45:04;;;;;;;5.05;2.97;;;39.00;16.60;;;;;;5122463;27;20472;-59
2022/04/11 08:47:30;;;;;;;6.88;3.25;;;35.00;17.20;;;;;;5144102;27;20023;-59
2022/04/11 08:49:55;;;;;;;7.50;2.95;;;34.90;17.70;;;;;;5153891;27;20031;-56
2022/04/11 08:52:22;;;;;;;6.18;2.90;;;34.80;17.60;;;;;;5148108;27;20143;-57
2022/04/11 08:54:51;;;;;;;8.02;2.28;;;32.90;17.70;;;;;;5107582;27;20041;-58
2022/04/11 08:57:17;;;;;;;5.40;2.25;;;30.50;18.40;;;;;;5104064;27;20027;-57
2022/04/11 08:59:42;;;;;;;6.53;1.98;;;28.70;19.30;;;;;;5131417;27;20019;-61
2022/04/11 09:02:11;;;;;;;5.25;2.00;;;26.80;19.90;;;;;;5127333;27;20057;-60
2022/04/11 09:04:56;;;;;;;10.70;3.60;;;25.00;20.90;;;;;;5147057;27;20125;-57
2022/04/11 09:07:28;;;;;;;11.65;2.70;;;23.70;21.90;;;;;;5154730;27;20018;-58
2022/04/11 09:09:59;;;;;;;7.47;2.00;;;22.50;22.70;;;;;;5124974;27;20027;-59
2022/04/11 09:12:26;;;;;;;6.50;2.55;;;21.30;23.50;;;;;;5129482;27;20023;-58
2022/04/11 09:14:56;;;;;;;12.93;2.72;;;20.40;24.30;;;;;;5125569;27;20019;-58
2022/04/11 09:17:25;;;;;;;7.65;2.80;;;19.70;24.90;;;;;;5155024;27;20023;-59
2022/04/11 09:20:14;;;;;;;6.03;2.00;;;19.10;25.30;;;;;;5151292;27;20018;-59
2022/04/11 09:22:41;;;;;;;6.30;2.47;;;18.60;25.60;;;;;;5136644;27;20118;-58
2022/04/11 09:25:13;;;;;;;5.47;1.90;;;18.40;25.90;;;;;;5133448;27;20083;-58
2022/04/11 09:27:39;;;;;;;5.05;2.15;;;18.00;26.20;;;;;;5135499;27;20034;-57
2022/04/11 09:30:26;;;;;;;7.95;2.28;;;17.60;26.50;;;;;;5154346;27;20026;-57
2022/04/11 09:32:57;;;;;;;8.60;2.90;;;17.20;27.00;;;;;;5140230;27;20112;-56
2022/04/11 09:35:25;;;;;;;7.53;2.83;;;16.70;27.50;;;;;;5137001;27;20030;-58
2022/04/11 09:38:10;;;;;;;10.68;2.30;;;16.60;27.40;;;;;;5109661;27;20010;-54
2022/04/11 09:40:51;;;;;;;6.75;2.25;;;16.40;27.50;;;;;;5124642;27;20052;-60
2022/04/11 09:43:31;;;;;;;7.05;2.10;;;16.30;27.90;;;;;;5142912;27;20113;-53
2022/04/11 09:46:01;;;;;;;6.32;1.90;;;16.20;27.80;;;;;;5116450;27;20023;-61
2022/04/11 09:48:29;;;;;;;7.15;2.15;;;16.10;28.10;;;;;;5146235;27;20029;-56
2022/04/11 09:50:58;;;;;;;7.53;2.13;;;16.00;28.00;;;;;;5141354;27;20075;-53
2022/04/11 09:53:35;;;;;;;7.80;4.75;;;15.80;27.90;;;;;;5108568;27;20497;-56
2022/04/11 09:56:09;;;;;;;13.73;9.80;;;15.60;28.00;;;;;;5128428;27;20079;-60
2022/04/11 09:58:36;;;;;;;6.15;2.45;;;15.60;28.00;;;;;;5130592;27;20023;-59
2022/04/11 10:01:04;;;;;;;12.00;6.78;;;15.60;28.10;;;;;;5123980;27;20034;-57
2022/04/11 10:03:31;;;;;;;7.50;3.30;;;15.40;28.50;;;;;;5128880;27;20420;-58
2022/04/11 10:05:58;;;;;;;9.05;2.30;;;15.10;29.00;;;;;;5148700;27;20033;-53
2022/04/11 10:08:25;;;;;;;10.38;3.88;;;14.70;30.20;;;;;;5149487;27;20030;-58
2022/04/11 10:10:52;;;;;;;17.15;8.75;;;14.60;29.80;;;;;;5127453;27;20038;-53
2022/04/11 10:13:18;;;;;;;22.60;11.82;;;14.60;29.40;;;;;;5122423;27;20089;-51
2022/04/11 10:15:47;;;;;;;10.38;5.07;;;14.60;29.40;;;;;;5128819;27;20141;-52
2022/04/11 10:18:15;;;;;;;7.03;2.80;;;14.80;29.30;;;;;;5133034;27;20034;-58
2022/04/11 10:20:49;;;;;;;7.05;3.00;;;15.00;29.30;;;;;;5131784;27;20514;-50
2022/04/11 10:23:24;;;;;;;6.53;3.00;;;15.20;29.20;;;;;;5125217;27;20451;-56
2022/04/11 10:25:53;;;;;;;8.13;3.20;;;15.30;29.00;;;;;;5144559;27;20043;-55
2022/04/11 10:28:22;;;;;;;6.68;1.95;;;15.40;28.90;;;;;;5130372;27;20054;-60
2022/04/11 10:31:06;;;;;;;6.50;2.05;;;15.40;28.80;;;;;;5130525;27;20022;-51
2022/04/11 10:33:57;;;;;;;8.63;3.10;;;15.30;28.90;;;;;;5136278;27;20022;-57
2022/04/11 10:36:29;;;;;;;10.38;2.60;;;15.30;29.70;;;;;;5133810;27;20073;-55
2022/04/11 10:39:13;;;;;;;8.60;2.92;;;15.30;29.90;;;;;;5122766;27;20030;-54
2022/04/11 10:41:57;;;;;;;8.18;2.70;;;15.30;30.10;;;;;;5124707;27;20081;-57
2022/04/11 10:44:33;;;;;;;;;;;15.40;30.00;;;;;;5125041;27;20151;-52
2022/04/11 10:47:09;;;;;;;6.07;2.47;;;15.20;30.00;;;;;;5124041;27;20310;-52
2022/04/11 10:49:50;;;;;;;9.02;3.35;;;15.30;29.90;;;;;;5120727;27;20136;-55
2022/04/11 10:52:37;;;;;;;10.20;2.75;;;15.40;29.80;;;;;;5129385;27;20019;-55
2022/04/11 10:55:18;;;;;;;6.10;2.65;;;15.40;29.30;;;;;;5130979;27;20027;-55
2022/04/11 10:57:51;;;;;;;8.25;2.60;;;15.40;29.10;;;;;;5117398;27;20051;-52
2022/04/11 11:00:17;;;;;;;6.45;2.33;;;15.40;29.00;;;;;;5115876;27;20031;-55
2022/04/11 11:02:49;;;;;;;27.15;10.80;;;15.50;29.00;;;;;;5124460;27;20028;-59
2022/04/11 11:05:37;;;;;;;5.97;3.13;;;15.60;29.40;;;;;;5126047;27;20027;-55
2022/04/11 11:08:16;;;;;;;12.15;4.55;;;15.80;29.20;;;;;;5110804;27;20028;-53
2022/04/11 11:10:45;;;;;;;17.77;6.90;;;15.80;29.20;;;;;;5126158;27;20019;-53
2022/04/11 11:13:36;;;;;;;7.70;2.63;;;15.70;29.40;;;;;;5130711;27;20459;-53
2022/04/11 11:16:07;;;;;;;5.32;2.60;;;15.60;29.30;;;;;;5131025;27;20106;-50
2022/04/11 11:18:51;;;;;;;6.70;2.20;;;15.70;29.30;;;;;;5119890;27;20023;-54
2022/04/11 11:21:22;;;;;;;7.85;2.95;;;15.80;28.80;;;;;;5118550;27;20026;-53
2022/04/11 11:24:12;;;;;;;6.93;3.72;;;15.90;29.00;;;;;;5126152;27;20414;-53
2022/04/11 11:26:56;;;;;;;13.43;5.40;;;15.80;29.10;;;;;;5130370;27;20113;-57
2022/04/11 11:29:43;;;;;;;13.13;7.63;;;15.90;29.00;;;;;;5113357;28;20039;-54
2022/04/11 11:32:12;;;;;;;7.75;3.00;;;16.00;28.80;;;;;;5111705;27;20051;-56
2022/04/11 11:34:38;;;;;;;10.27;3.00;;;16.20;28.80;;;;;;5116012;28;20023;-57
2022/04/11 11:37:07;;;;;;;7.13;2.78;;;15.80;28.90;;;;;;5124462;27;20099;-56
2022/04/11 11:39:38;;;;;;;18.92;8.77;;;16.00;29.60;;;;;;5112567;27;20048;-55
2022/04/11 11:42:09;;;;;;;17.23;5.45;;;16.20;29.00;;;;;;5116969;27;20054;-55
2022/04/11 11:44:47;;;;;;;9.48;2.80;;;16.30;28.90;;;;;;5125900;28;20031;-57
2022/04/11 11:47:13;;;;;;;8.35;2.47;;;16.40;28.40;;;;;;5128977;27;20029;-56
2022/04/11 11:49:44;;;;;;;7.70;2.72;;;16.70;28.50;;;;;;5117163;27;20106;-55
2022/04/11 11:52:20;;;;;;;7.35;3.38;;;16.90;28.30;;;;;;5121387;28;20476;-57
2022/04/11 11:54:50;;;;;;;7.55;2.47;;;16.90;28.10;;;;;;5122903;28;20122;-53
2022/04/11 11:57:25;;;;;;;10.35;3.13;;;16.80;28.00;;;;;;5119032;28;20024;-54
2022/04/11 11:59:51;;;;;;;9.40;2.90;;;16.80;28.10;;;;;;5124251;28;20023;-57
2022/04/11 12:05:13;;;;;;;5.68;2.75;;;17.00;28.00;;;;;;5114077;28;20114;-56
2022/04/11 12:07:39;;;;;;;4.90;2.20;;;16.90;27.70;;;;;;5126060;28;20054;-58
2022/04/11 12:10:09;;;;;;;8.88;3.30;;;16.50;27.80;;;;;;5129368;28;20023;-53
2022/04/11 12:12:35;;;;;;;6.60;2.40;;;16.20;28.20;;;;;;5130508;27;20031;-56
2022/04/11 12:15:05;;;;;;;8.93;2.42;;;15.80;28.30;;;;;;5130475;27;20206;-56
2022/04/11 12:17:34;;;;;;;5.90;2.25;;;15.60;28.50;;;;;;5129607;27;20053;-60
2022/04/11 12:20:16;;;;;;;6.55;3.38;;;15.50;28.60;;;;;;5125686;28;20023;-52
2022/04/11 12:23:10;;;;;;;24.40;14.48;;;15.40;28.70;;;;;;5130582;27;20038;-55
2022/04/11 12:25:37;;;;;;;14.70;3.42;;;15.70;28.70;;;;;;5113247;28;20115;-55
2022/04/11 12:28:17;;;;;;;11.35;4.53;;;15.80;28.70;;;;;;5132345;27;20019;-53
2022/04/11 12:31:03;;;;;;;6.22;2.80;;;16.10;28.50;;;;;;5132711;27;20019;-56
2022/04/11 12:33:44;;;;;;;9.40;3.22;;;16.30;28.30;;;;;;5133524;27;20333;-56
2022/04/11 12:36:12;;;;;;;5.93;2.55;;;16.50;28.00;;;;;;5125804;27;20049;-61
2022/04/11 12:39:02;;;;;;;13.30;3.05;;;16.50;27.70;;;;;;5130866;27;20555;-55
2022/04/11 12:41:38;;;;;;;12.02;4.57;;;16.60;27.40;;;;;;5144857;27;20131;-51
2022/04/11 12:44:15;;;;;;;8.00;3.40;;;16.60;27.60;;;;;;5153853;27;20033;-52
2022/04/11 12:46:45;;;;;;;27.63;13.52;;;16.70;27.50;;;;;;5131404;27;20071;-52
2022/04/11 12:49:18;;;;;;;6.03;2.45;;;16.70;27.50;;;;;;5149758;27;20437;-59
2022/04/11 12:51:57;;;;;;;6.70;2.57;;;16.60;27.70;;;;;;5132532;27;20042;-53
2022/04/11 12:54:22;;;;;;;8.85;3.17;;;16.50;27.60;;;;;;5125330;27;20109;-55
2022/04/11 12:56:51;;;;;;;8.25;2.75;;;16.60;27.60;;;;;;5153144;27;20110;-51
2022/04/11 12:59:29;;;;;;;13.80;4.93;;;16.70;27.30;;;;;;5132926;27;20027;-54
2022/04/11 13:02:05;;;;;;;6.53;2.60;;;16.60;27.10;;;;;;5122940;27;20031;-50